Smith Bros No. 2 — WDJ7994 — position and weather

sailwx.info

Track history (hours):
 
Tides and Currents Weather Stations Pressure Air Temp Water Temp Dewpoint Dewpoint Depression Visibility Wind Speed Wind Dir Waves Ship Positions

Smith Bros No. 2

Owner: Korth, Todd, Campbell, CA. More information available from US FCC via Universal Licensing System and Coast Guard Vessel Documentation Center.

Last reported at 2018-May-16 22:03 UTC. Time now 2018-May-24 00:25 UTC.
Position N 37°30' W 122°29'.

Length 15 m.

Type: Fishing. MMSI: 368012090.

Date/timePositionNaut miles runAvg speedWind from/ knotsBaromVisibWave heightAir tempDewpointWater temp
2018-May-16 22:03N 37°30' W 122°29'0 0.0
2018-May-16 22:00N 37°30' W 122°29'0 0.0
2018-May-16 21:30N 37°30' W 122°29'0 0.0
2018-May-16 21:00N 37°30' W 122°29'0 0.0
2018-May-16 20:30N 37°30' W 122°29'0 0.1
2018-May-16 19:58N 37°30' W 122°29'0 0.0
2018-May-16 19:28N 37°30' W 122°29'0 1.0
2018-May-16 19:00N 37°30' W 122°29'2 4.7
2018-May-16 18:30N 37°29' W 122°32'3 6.6
2018-May-16 17:59N 37°30' W 122°36'3 6.7
2018-May-16 17:30N 37°30' W 122°40'17 6.4
2018-May-16 14:48N 37°37' W 123°00'0 1.0
2018-May-16 14:19N 37°38' W 123°00'0 1.3
2018-May-16 13:59N 37°38' W 123°01'3 2.7
2018-May-16 12:47N 37°39' W 122°57'0 0.7
2018-May-16 12:29N 37°39' W 122°57'3 0.7
2018-May-16 08:38N 37°39' W 123°01'13 1.2
2018-May-15 22:00N 37°32' W 122°47'14 0.8
2018-May-15 05:06N 37°30' W 122°29'0 0.9
2018-May-15 05:00N 37°30' W 122°29'2 4.5
2018-May-15 04:30N 37°29' W 122°31'3 6.9
2018-May-15 04:00N 37°28' W 122°35'4 6.8
2018-May-15 03:27N 37°29' W 122°40'  
Track history (hours):
 
Tides and Currents Weather Stations Pressure Air Temp Water Temp Dewpoint Dewpoint Depression Visibility Wind Speed Wind Dir Waves Ship Positions

Smith Bros No. 2

Owner: Korth, Todd, Campbell, CA. More information available from US FCC via Universal Licensing System and Coast Guard Vessel Documentation Center.

Last reported at 2018-May-16 22:03 UTC. Time now 2018-May-24 00:25 UTC.
Position N 37°30' W 122°29'.

Length 15 m.

Type: Fishing. MMSI: 368012090.

Date/timePositionNaut miles runAvg speedWind from/ knotsBaromVisibWave heightAir tempDewpointWater temp
2018-May-16 22:03N 37°30' W 122°29'0 0.0
2018-May-16 22:00N 37°30' W 122°29'0 0.0
2018-May-16 21:30N 37°30' W 122°29'0 0.0
2018-May-16 21:00N 37°30' W 122°29'0 0.0
2018-May-16 20:30N 37°30' W 122°29'0 0.1
2018-May-16 19:58N 37°30' W 122°29'0 0.0
2018-May-16 19:28N 37°30' W 122°29'0 1.0
2018-May-16 19:00N 37°30' W 122°29'2 4.7
2018-May-16 18:30N 37°29' W 122°32'3 6.6
2018-May-16 17:59N 37°30' W 122°36'3 6.7
2018-May-16 17:30N 37°30' W 122°40'17 6.4
2018-May-16 14:48N 37°37' W 123°00'0 1.0
2018-May-16 14:19N 37°38' W 123°00'0 1.3
2018-May-16 13:59N 37°38' W 123°01'3 2.7
2018-May-16 12:47N 37°39' W 122°57'0 0.7
2018-May-16 12:29N 37°39' W 122°57'3 0.7
2018-May-16 08:38N 37°39' W 123°01'13 1.2
2018-May-15 22:00N 37°32' W 122°47'14 0.8
2018-May-15 05:06N 37°30' W 122°29'0 0.9
2018-May-15 05:00N 37°30' W 122°29'2 4.5
2018-May-15 04:30N 37°29' W 122°31'3 6.9
2018-May-15 04:00N 37°28' W 122°35'4 6.8
2018-May-15 03:27N 37°29' W 122°40'  

Dump ship's entire track history